Terminal Aerodrome Forecast
Issued by NWS

Home | Current Version | Previous Version | Text Only | Print | Product List | Glossary On
Versions: 1 2 3 4 5 6 7 8 9 10 11 12 13 14 15 16 17 18 19 20 21 22 23 24 25 26 27 28 29 30 31 32
000
FTUS43 KGLD 252325
TAFMCK
TAF
KMCK 252325Z 2600/2624 35012KT P6SM FEW070 BKN250
     FM260100 36005KT P6SM SCT250
     FM260700 VRB04KT P6SM BKN120
     FM261800 31018G27KT P6SM SCT250=

USA.gov is the U.S. government's official web portal to all federal, state and local government web resources and services.